Time;durP1;ratioP1;P1;durP2;ratioP2;P2;SDS_P1;SDS_P2;PMS_P1;PMS_P2;Temp;Humidity;BMP_temperature;BMP_pressure;BME280_temperature;BME280_humidity;BME280_pressure;Samples;Min_cycle;Max_cycle;Signal;HPM_P1;HPM_P2
2023/09/19 00:03:02;;;;;;;22.20;15.30;;;;;;;20.12;75.04;98851.52;109520;1252;75388;-66
2023/09/19 00:05:50;;;;;;;21.20;15.00;;;;;;;20.15;74.78;98852.98;109406;1253;58710;-66
2023/09/19 00:08:37;;;;;;;21.80;15.50;;;;;;;20.18;74.61;98855.09;109413;1253;60299;-64
2023/09/19 00:11:25;;;;;;;22.00;15.90;;;;;;;20.19;74.63;98852.91;109547;1252;73915;-64
2023/09/19 00:14:14;;;;;;;19.60;15.30;;;;;;;20.19;74.59;98855.72;109568;1252;67883;-65
2023/09/19 00:17:00;;;;;;;20.20;15.00;;;;;;;20.18;74.56;98858.29;109522;1252;72711;-66
2023/09/19 00:19:51;;;;;;;21.80;15.50;;;;;;;20.18;74.40;98857.00;109509;1252;59315;-65
2023/09/19 00:22:41;;;;;;;19.70;14.60;;;;;;;20.21;74.11;98859.99;109551;1252;61677;-64
2023/09/19 00:25:28;;;;;;;21.30;15.40;;;;;;;20.24;73.91;98856.02;109421;1252;71850;-63
2023/09/19 00:28:14;;;;;;;21.30;15.10;;;;;;;20.25;73.90;98854.61;109529;1253;66995;-63
2023/09/19 00:31:01;;;;;;;23.00;15.50;;;;;;;20.26;74.58;98852.52;109575;1253;72701;-65
2023/09/19 00:33:48;;;;;;;18.90;14.70;;;;;;;20.24;75.54;98855.89;109518;1252;57369;-65
2023/09/19 00:36:34;;;;;;;26.80;15.50;;;;;;;20.14;76.56;98852.23;109531;1252;59126;-66
2023/09/19 00:39:21;;;;;;;24.40;16.20;;;;;;;20.11;77.11;98852.36;109550;1252;73977;-65
2023/09/19 00:42:08;;;;;;;21.10;15.20;;;;;;;20.06;77.41;98851.66;109521;1252;66414;-66
2023/09/19 00:44:54;;;;;;;22.70;15.70;;;;;;;20.00;78.00;98845.40;109554;1252;71444;-65
2023/09/19 00:47:44;;;;;;;24.00;16.80;;;;;;;19.96;78.57;98857.59;109504;1252;59084;-64
2023/09/19 00:50:32;;;;;;;21.70;15.60;;;;;;;19.90;78.75;98858.62;109574;1252;58708;-65
2023/09/19 00:53:23;;;;;;;22.90;16.40;;;;;;;19.87;79.27;98859.49;109432;1252;71760;-65
2023/09/19 00:56:09;;;;;;;28.40;16.20;;;;;;;19.83;79.97;98861.41;109531;1252;68875;-64
2023/09/19 00:58:56;;;;;;;25.40;16.40;;;;;;;19.82;79.78;98853.19;109468;1254;71426;-65
2023/09/19 01:01:45;;;;;;;21.10;16.30;;;;;;;19.80;79.85;98848.49;109401;1253;57671;-65
2023/09/19 01:04:32;;;;;;;23.40;16.20;;;;;;;19.79;80.71;98849.77;109435;1252;61399;-66
2023/09/19 01:07:18;;;;;;;25.60;17.70;;;;;;;19.73;81.78;98843.86;109394;1252;72924;-66
2023/09/19 01:10:06;;;;;;;22.00;16.70;;;;;;;19.66;83.17;98844.11;109397;1252;68851;-66
2023/09/19 01:13:14;;;;;;;21.90;15.80;;;;;;;19.55;84.59;98836.27;109542;1252;72600;-66
2023/09/19 01:16:33;;;;;;;21.90;16.90;;;;;;;19.46;85.60;98835.65;109529;1252;60345;-66
2023/09/19 01:19:53;;;;;;;23.90;17.90;;;;;;;19.37;85.82;98831.05;109572;1252;60419;-66
2023/09/19 01:22:56;;;;;;;24.00;17.50;;;;;;;19.29;87.04;98836.05;109520;1252;74346;-65
2023/09/19 01:26:25;;;;;;;24.40;17.10;;;;;;;19.24;87.47;98827.79;109565;1252;69282;-65
2023/09/19 01:29:39;;;;;;;25.10;16.50;;;;;;;19.19;88.04;98824.59;109374;1252;72670;-66
2023/09/19 01:32:25;;;;;;;22.90;16.50;;;;;;;19.16;89.23;98810.31;109547;1252;59360;-66
2023/09/19 01:35:13;;;;;;;24.30;17.60;;;;;;;19.14;89.29;98812.88;109546;1252;60295;-65
2023/09/19 01:37:59;;;;;;;21.80;17.20;;;;;;;19.14;89.68;98811.67;109569;1252;72965;-64
2023/09/19 01:41:05;;;;;;;22.70;15.80;;;;;;;19.12;89.83;98815.54;109560;1252;68970;-64
2023/09/19 01:43:52;;;;;;;22.10;15.20;;;;;;;19.11;89.80;98818.32;109434;1253;71681;-65
2023/09/19 01:46:41;;;;;;;21.30;13.90;;;;;;;19.12;89.80;98820.89;109408;1255;60455;-64
2023/09/19 01:49:43;;;;;;;21.40;14.50;;;;;;;19.15;89.68;98821.47;109466;1253;60266;-65
2023/09/19 01:52:36;;;;;;;21.10;14.40;;;;;;;19.17;89.72;98818.77;109373;1253;73861;-66
2023/09/19 01:55:28;;;;;;;20.70;14.30;;;;;;;19.18;89.61;98818.11;109435;1252;66433;-66
2023/09/19 01:58:50;;;;;;;19.20;13.30;;;;;;;19.19;89.38;98824.05;109394;1254;71469;-65
2023/09/19 02:01:37;;;;;;;20.20;12.70;;;;;;;19.19;89.48;98828.56;109316;1252;59648;-64
2023/09/19 02:04:24;;;;;;;17.60;11.90;;;;;;;19.17;89.69;98826.82;109383;1253;59389;-65
2023/09/19 02:07:11;;;;;;;18.70;12.00;;;;;;;19.18;89.62;98824.92;109504;1253;73842;-64
2023/09/19 02:10:03;;;;;;;19.80;12.40;;;;;;;19.17;89.67;98825.95;109435;1253;68945;-64
2023/09/19 02:12:50;;;;;;;16.80;10.90;;;;;;;19.17;89.22;98831.89;109511;1252;72555;-63
2023/09/19 02:15:37;;;;;;;14.20;9.30;;;;;;;19.17;89.11;98831.10;109300;1253;57378;-63
2023/09/19 02:18:24;;;;;;;17.10;10.10;;;;;;;19.17;88.58;98830.02;109535;1253;59472;-64
2023/09/19 02:21:12;;;;;;;14.40;8.50;;;;;;;19.17;87.84;98825.24;109428;1254;73823;-63
2023/09/19 02:23:59;;;;;;;17.20;8.10;;;;;;;19.20;87.10;98820.06;109561;1252;67772;-63
2023/09/19 02:26:45;;;;;;;13.50;7.50;;;;;;;19.20;86.46;98818.17;109433;1252;73768;-64
2023/09/19 02:29:34;;;;;;;12.80;6.70;;;;;;;19.21;86.16;98817.95;109537;1252;57995;-65
2023/09/19 02:32:20;;;;;;;13.60;7.10;;;;;;;19.18;85.89;98814.88;109406;1253;60369;-65
2023/09/19 02:35:10;;;;;;;12.00;6.10;;;;;;;19.17;85.61;98808.07;109544;1252;74055;-65
2023/09/19 02:37:57;;;;;;;10.00;5.20;;;;;;;19.15;85.35;98805.48;109525;1252;67629;-65
2023/09/19 02:40:44;;;;;;;11.40;4.60;;;;;;;19.12;85.33;98805.33;109515;1252;73788;-65
2023/09/19 02:43:30;;;;;;;9.60;4.60;;;;;;;19.10;85.35;98808.11;109491;1252;59277;-65
2023/09/19 02:46:16;;;;;;;9.30;4.40;;;;;;;19.07;85.52;98805.95;109567;1252;60198;-65
2023/09/19 02:49:06;;;;;;;12.00;4.40;;;;;;;19.01;85.84;98806.42;109535;1252;73703;-64
2023/09/19 02:51:52;;;;;;;8.70;4.10;;;;;;;18.94;86.17;98801.69;109582;1252;66498;-65
2023/09/19 02:54:39;;;;;;;8.10;3.80;;;;;;;18.92;86.59;98790.16;109520;1252;71411;-66
2023/09/19 02:57:24;;;;;;;9.90;3.70;;;;;;;18.85;87.41;98784.16;109416;1253;60529;-65
2023/09/19 03:00:12;;;;;;;9.10;3.50;;;;;;;18.78;88.23;98779.04;109383;1253;60158;-67
2023/09/19 03:02:59;;;;;;;9.20;3.50;;;;;;;18.71;89.14;98777.89;109548;1252;71547;-64
2023/09/19 03:05:46;;;;;;;11.00;3.40;;;;;;;18.63;89.82;98767.47;109394;1253;67939;-65
2023/09/19 03:08:36;;;;;;;9.30;3.60;;;;;;;18.54;91.16;98760.77;109413;1253;73574;-65
2023/09/19 03:11:23;;;;;;;9.30;3.30;;;;;;;18.45;91.82;98752.98;109300;1252;58454;-65
2023/09/19 03:14:10;;;;;;;9.00;3.10;;;;;;;18.36;93.12;98753.13;109428;1253;59778;-66
2023/09/19 03:16:57;;;;;;;12.80;3.30;;;;;;;18.25;94.39;98738.34;109531;1253;73151;-65
2023/09/19 03:19:44;;;;;;;9.20;3.20;;;;;;;18.16;95.22;98723.36;109410;1253;67875;-66
2023/09/19 03:22:32;;;;;;;9.20;2.90;;;;;;;18.08;96.20;98726.30;109562;1252;73605;-66
2023/09/19 03:25:19;;;;;;;9.70;2.90;;;;;;;17.99;96.65;98723.58;109420;1253;58124;-66
2023/09/19 03:28:07;;;;;;;7.50;2.80;;;;;;;17.94;97.34;98717.75;109319;1252;59574;-66
2023/09/19 03:31:06;;;;;;;9.00;2.70;;;;;;;17.91;97.42;98721.58;109411;1252;72512;-65
2023/09/19 03:33:53;;;;;;;7.60;2.60;;;;;;;17.87;98.04;98723.86;109556;1252;68811;-67
2023/09/19 03:36:41;;;;;;;7.70;2.30;;;;;;;17.85;98.02;98731.67;109415;1252;72658;-67
2023/09/19 03:39:28;;;;;;;8.30;2.60;;;;;;;17.83;98.58;98733.94;109444;1253;59411;-65
2023/09/19 03:42:14;;;;;;;13.20;3.20;;;;;;;17.80;98.76;98732.89;109409;1253;59016;-65
2023/09/19 03:45:04;;;;;;;12.30;3.10;;;;;;;17.78;99.00;98734.33;109458;1252;71431;-68
2023/09/19 03:47:51;;;;;;;8.20;2.80;;;;;;;17.76;99.55;98736.17;109431;1252;68793;-69
2023/09/19 03:50:39;;;;;;;7.10;2.60;;;;;;;17.74;99.61;98733.06;109414;1254;71285;-69
2023/09/19 03:53:25;;;;;;;9.00;3.00;;;;;;;17.73;99.43;98728.55;109381;1254;59286;-68
2023/09/19 03:56:12;;;;;;;10.10;2.80;;;;;;;17.73;99.35;98726.80;109380;1252;59990;-69
2023/09/19 03:58:58;;;;;;;11.20;3.20;;;;;;;17.72;99.76;98723.83;109419;1253;73867;-70
2023/09/19 04:01:46;;;;;;;9.20;3.20;;;;;;;17.71;99.69;98716.44;109401;1252;66937;-69
2023/09/19 04:04:33;;;;;;;8.00;2.50;;;;;;;17.70;99.82;98721.16;109557;1252;73532;-69
2023/09/19 04:07:22;;;;;;;8.10;2.70;;;;;;;17.70;99.69;98720.71;109441;1253;58224;-69
2023/09/19 04:10:11;;;;;;;7.70;2.60;;;;;;;17.69;99.98;98722.03;109503;1252;60408;-70
2023/09/19 04:12:58;;;;;;;9.90;2.80;;;;;;;17.65;99.99;98720.23;109468;1252;73933;-68
2023/09/19 04:15:46;;;;;;;8.50;2.90;;;;;;;17.63;100.00;98717.51;109517;1252;68877;-67
2023/09/19 04:18:33;;;;;;;8.30;2.30;;;;;;;17.60;100.00;98710.67;109453;1253;73602;-69
2023/09/19 04:21:21;;;;;;;9.20;2.90;;;;;;;17.57;100.00;98707.44;109246;1253;59386;-69
2023/09/19 04:24:08;;;;;;;9.00;2.70;;;;;;;17.54;100.00;98695.25;109332;1255;59049;-72
2023/09/19 04:26:54;;;;;;;8.50;2.80;;;;;;;17.57;100.00;98697.59;109486;1253;72706;-71
2023/09/19 04:29:42;;;;;;;10.50;2.60;;;;;;;17.56;100.00;98692.94;109476;1252;67787;-69
2023/09/19 04:32:29;;;;;;;7.90;2.70;;;;;;;17.54;100.00;98697.81;109517;1252;71821;-68
2023/09/19 04:35:16;;;;;;;9.60;3.00;;;;;;;17.52;100.00;98698.42;109368;1253;59374;-68
2023/09/19 04:38:03;;;;;;;10.00;2.70;;;;;;;17.51;100.00;98693.86;109210;1252;226210;-68
2023/09/19 04:40:49;;;;;;;9.40;2.80;;;;;;;17.51;100.00;98702.88;109322;1252;73700;-70
2023/09/19 04:43:36;;;;;;;10.60;3.10;;;;;;;17.49;100.00;98705.55;109491;1252;66711;-71
2023/09/19 04:46:22;;;;;;;8.10;2.50;;;;;;;17.48;100.00;98706.96;109440;1252;71489;-71
2023/09/19 04:49:08;;;;;;;8.40;2.60;;;;;;;17.49;100.00;98710.70;109499;1252;59610;-71
2023/09/19 04:51:55;;;;;;;10.50;2.80;;;;;;;17.48;100.00;98720.29;109534;1252;60173;-71
2023/09/19 04:54:42;;;;;;;9.90;2.70;;;;;;;17.46;100.00;98724.23;109501;1252;74028;-69
2023/09/19 04:57:28;;;;;;;12.30;2.80;;;;;;;17.45;100.00;98734.78;109580;1253;67557;-69
2023/09/19 05:00:24;;;;;;;10.50;2.80;;;;;;;17.45;100.00;98734.95;109497;1252;72644;-70
2023/09/19 05:03:10;;;;;;;11.00;3.20;;;;;;;17.45;100.00;98743.23;109464;1252;60588;-69
2023/09/19 05:05:57;;;;;;;8.20;3.00;;;;;;;17.45;100.00;98744.14;109514;1252;58970;-68
2023/09/19 05:08:43;;;;;;;10.50;3.20;;;;;;;17.45;100.00;98745.38;109579;1252;74127;-70
2023/09/19 05:11:30;;;;;;;10.10;3.40;;;;;;;17.45;100.00;98744.12;109615;1254;67544;-71
2023/09/19 05:14:16;;;;;;;7.80;2.50;;;;;;;17.43;100.00;98745.27;109756;1253;72290;-69
2023/09/19 05:17:04;;;;;;;10.80;3.10;;;;;;;17.41;100.00;98740.75;109628;1252;58310;-69
2023/09/19 05:19:50;;;;;;;11.20;3.10;;;;;;;17.38;100.00;98730.48;109655;1252;60059;-72
2023/09/19 05:22:40;;;;;;;9.20;3.00;;;;;;;17.35;100.00;98728.55;109603;1253;71558;-70
2023/09/19 05:25:37;;;;;;;10.30;3.00;;;;;;;17.32;100.00;98730.72;109335;1253;67594;-70
2023/09/19 05:28:23;;;;;;;9.90;2.80;;;;;;;17.30;100.00;98740.34;109461;1252;72494;-70
2023/09/19 05:31:09;;;;;;;8.90;3.30;;;;;;;17.28;100.00;98750.95;109534;1253;59629;-71
2023/09/19 05:33:56;;;;;;;9.10;3.30;;;;;;;17.26;100.00;98763.73;109433;1252;61233;-73
2023/09/19 05:36:43;;;;;;;9.30;3.30;;;;;;;17.21;100.00;98765.77;109470;1253;74038;-70
2023/09/19 05:39:29;;;;;;;11.80;3.80;;;;;;;17.23;100.00;98770.35;109581;1252;68757;-71
2023/09/19 05:42:15;;;;;;;9.10;3.50;;;;;;;17.23;100.00;98772.73;109349;1252;73473;-73
2023/09/19 05:45:02;;;;;;;9.90;3.10;;;;;;;17.24;100.00;98776.52;109415;1252;59548;-71
2023/09/19 05:47:51;;;;;;;10.90;3.60;;;;;;;17.23;100.00;98776.47;109423;1252;58735;-71
2023/09/19 05:50:38;;;;;;;10.50;3.60;;;;;;;17.26;100.00;98774.02;109515;1252;72993;-70
2023/09/19 05:53:25;;;;;;;10.10;3.10;;;;;;;17.27;100.00;98767.40;109430;1254;68954;-67
2023/09/19 05:56:13;;;;;;;9.60;3.70;;;;;;;17.29;100.00;98771.77;109552;1252;71353;-62
2023/09/19 05:58:59;;;;;;;9.80;3.20;;;;;;;17.31;100.00;98767.11;109492;1253;59544;-65
2023/09/19 06:01:46;;;;;;;10.00;3.40;;;;;;;17.33;100.00;98765.73;109573;1252;60199;-65
2023/09/19 06:04:33;;;;;;;12.50;3.60;;;;;;;17.36;100.00;98771.25;109485;1252;72961;-65
2023/09/19 06:07:27;;;;;;;10.20;3.60;;;;;;;17.38;100.00;98771.01;109359;1252;68022;-63
2023/09/19 06:10:14;;;;;;;10.50;3.40;;;;;;;17.40;100.00;98771.81;109461;1252;71219;-63
2023/09/19 06:13:05;;;;;;;9.30;3.40;;;;;;;17.39;100.00;98759.96;109321;1254;60389;-67
2023/09/19 06:15:52;;;;;;;8.30;3.10;;;;;;;17.46;100.00;98755.84;109541;1252;59069;-71
2023/09/19 06:18:39;;;;;;;11.30;3.70;;;;;;;17.50;100.00;98753.89;109512;1253;71830;-67
2023/09/19 06:21:27;;;;;;;16.10;4.20;;;;;;;17.62;100.00;98753.59;109514;1253;68902;-67
2023/09/19 06:24:13;;;;;;;10.10;4.20;;;;;;;17.79;100.00;98756.44;109473;1252;72589;-67
2023/09/19 06:27:01;;;;;;;10.90;4.30;;;;;;;18.16;100.00;98770.48;109242;1254;60708;-67
2023/09/19 06:29:47;;;;;;;10.10;4.30;;;;;;;18.61;100.00;98768.30;109294;1254;60854;-65
2023/09/19 06:32:33;;;;;;;12.10;4.00;;;;;;;18.90;100.00;98774.42;109461;1254;72962;-67
2023/09/19 06:35:20;;;;;;;10.60;4.20;;;;;;;19.05;100.00;98773.47;109287;1253;67787;-65
2023/09/19 06:38:07;;;;;;;10.00;4.40;;;;;;;18.99;100.00;98781.80;109432;1254;73522;-66
2023/09/19 06:40:54;;;;;;;10.20;4.10;;;;;;;19.06;100.00;98781.59;109402;1254;57903;-66
2023/09/19 06:43:40;;;;;;;10.00;4.40;;;;;;;19.23;99.98;98776.09;109326;1253;59539;-64
2023/09/19 06:46:32;;;;;;;12.70;4.50;;;;;;;19.37;98.97;98782.08;109262;1252;73939;-65
2023/09/19 06:49:20;;;;;;;9.80;4.40;;;;;;;19.44;98.46;98784.15;109498;1253;66835;-65
2023/09/19 06:52:07;;;;;;;8.90;3.40;;;;;;;19.50;97.83;98781.66;109491;1253;71677;-63
2023/09/19 06:54:53;;;;;;;9.60;3.80;;;;;;;19.59;96.37;98783.72;109451;1252;60439;-66
2023/09/19 06:57:43;;;;;;;9.10;3.80;;;;;;;19.75;95.64;98781.34;109466;1253;60289;-66
2023/09/19 07:00:32;;;;;;;9.80;3.90;;;;;;;20.01;94.51;98788.61;109522;1253;73815;-66
2023/09/19 07:03:21;;;;;;;10.90;4.20;;;;;;;20.08;93.74;98790.67;109430;1252;66876;-67
2023/09/19 07:06:08;;;;;;;12.70;4.20;;;;;;;20.04;92.99;98793.55;109511;1252;72361;-69
2023/09/19 07:08:55;;;;;;;10.00;4.70;;;;;;;19.89;92.69;98786.89;109384;1253;57668;-67
2023/09/19 07:11:42;;;;;;;12.10;4.10;;;;;;;19.85;92.96;98790.40;109544;1252;58979;-66
2023/09/19 07:14:30;;;;;;;9.80;4.10;;;;;;;19.86;93.06;98786.45;109474;1253;73932;-66
2023/09/19 07:17:18;;;;;;;11.70;4.30;;;;;;;19.97;93.07;98788.08;109552;1252;68942;-66
2023/09/19 07:20:08;;;;;;;9.40;4.00;;;;;;;20.05;91.98;98785.90;109449;1252;72592;-67
2023/09/19 07:22:55;;;;;;;8.80;3.70;;;;;;;20.25;91.51;98782.80;109487;1253;57972;-66
2023/09/19 07:25:42;;;;;;;10.20;4.20;;;;;;;20.75;88.68;98785.92;109451;1252;59965;-64
2023/09/19 07:28:28;;;;;;;8.60;3.90;;;;;;;21.10;86.92;98785.92;109321;1253;72997;-64
2023/09/19 07:31:15;;;;;;;10.00;3.90;;;;;;;21.26;85.10;98788.92;109360;1253;66973;-66
2023/09/19 07:34:03;;;;;;;8.90;3.60;;;;;;;21.37;84.58;98793.70;109462;1253;72767;-63
2023/09/19 07:36:50;;;;;;;11.30;3.90;;;;;;;21.43;84.04;98794.70;109481;1252;57747;-69
2023/09/19 07:39:36;;;;;;;9.70;3.70;;;;;;;21.34;83.33;98798.92;109560;1252;60201;-65
2023/09/19 07:42:22;;;;;;;10.40;3.80;;;;;;;21.16;83.63;98799.65;109498;1253;73725;-67
2023/09/19 07:45:14;;;;;;;10.60;3.50;;;;;;;20.97;83.70;98807.92;109554;1252;66799;-66
2023/09/19 07:48:04;;;;;;;10.70;4.00;;;;;;;20.79;84.91;98811.36;109366;1253;73676;-66
2023/09/19 07:50:51;;;;;;;9.10;4.20;;;;;;;20.61;85.05;98808.64;109509;1252;57932;-65
2023/09/19 07:53:37;;;;;;;9.80;3.80;;;;;;;20.37;85.42;98813.89;109516;1252;61678;-66
2023/09/19 07:56:25;;;;;;;9.30;3.70;;;;;;;20.14;86.07;98813.50;109471;1252;72784;-65
2023/09/19 07:59:13;;;;;;;9.50;3.90;;;;;;;20.05;87.08;98810.54;109506;1253;68348;-66
2023/09/19 08:02:00;;;;;;;8.90;3.40;;;;;;;20.13;87.73;98804.98;109350;1253;72473;-66
2023/09/19 08:04:47;;;;;;;8.80;3.50;;;;;;;20.56;86.93;98809.54;109331;1253;57981;-63
2023/09/19 08:07:36;;;;;;;8.50;3.30;;;;;;;21.48;83.26;98815.80;109304;1253;60264;-64
2023/09/19 08:10:22;;;;;;;9.80;3.30;;;;;;;22.78;79.00;98809.11;109511;1252;72655;-69
2023/09/19 08:13:14;;;;;;;8.60;2.70;;;;;;;23.97;73.83;98808.16;109366;1253;67102;-65
2023/09/19 08:16:00;;;;;;;7.50;2.60;;;;;;;25.42;65.50;98810.98;109492;1252;72715;-65
2023/09/19 08:18:54;;;;;;;8.30;2.80;;;;;;;26.47;61.62;98818.69;109430;1252;57388;-64
2023/09/19 08:21:41;;;;;;;7.70;2.30;;;;;;;26.17;59.21;98825.27;109536;1254;60352;-65
2023/09/19 08:24:30;;;;;;;9.40;2.80;;;;;;;25.43;59.79;98828.82;109571;1254;72738;-65
2023/09/19 08:27:18;;;;;;;7.30;2.60;;;;;;;25.04;61.49;98833.30;109544;1253;68778;-64
2023/09/19 08:30:06;;;;;;;6.60;2.30;;;;;;;25.25;61.95;98839.39;109455;1252;71583;-67
2023/09/19 08:33:06;;;;;;;6.70;2.00;;;;;;;26.07;58.39;98845.73;109557;1252;58828;-66
2023/09/19 08:35:55;;;;;;;9.10;2.20;;;;;;;26.58;55.09;98848.00;109457;1252;60434;-67
2023/09/19 08:38:41;;;;;;;7.40;2.10;;;;;;;26.44;54.89;98851.92;109565;1253;72826;-68
2023/09/19 08:41:28;;;;;;;7.40;2.30;;;;;;;26.03;55.31;98857.99;109561;1253;68664;-69
2023/09/19 08:44:14;;;;;;;6.50;1.80;;;;;;;25.68;55.93;98863.44;109326;1252;72711;-67
2023/09/19 08:47:14;;;;;;;6.30;2.30;;;;;;;25.47;55.58;98862.48;109530;1252;57784;-69
2023/09/19 08:50:17;;;;;;;7.80;2.10;;;;;;;25.71;55.07;98863.55;109414;1252;61345;-67
2023/09/19 08:53:15;;;;;;;7.90;2.30;;;;;;;26.16;54.61;98864.73;109437;1252;72931;-66
2023/09/19 08:56:03;;;;;;;8.10;2.30;;;;;;;27.14;51.61;98855.36;109450;1254;68812;-67
2023/09/19 08:59:03;;;;;;;6.60;2.00;;;;;;;27.88;50.64;98854.48;109576;1252;73577;-69
2023/09/19 09:01:53;;;;;;;7.70;1.90;;;;;;;28.76;48.17;98857.60;109444;1253;57792;-69
2023/09/19 09:04:41;;;;;;;8.40;1.90;;;;;;;29.79;44.35;98853.91;109462;1253;60393;-68
2023/09/19 09:07:28;;;;;;;6.00;1.40;;;;;;;30.44;42.24;98860.38;109295;1253;71511;-69
2023/09/19 09:10:15;;;;;;;5.90;1.50;;;;;;;30.91;41.16;98862.45;109351;1253;67937;-68
2023/09/19 09:13:06;;;;;;;6.60;1.60;;;;;;;30.89;40.22;98865.64;109440;1253;71259;-69
2023/09/19 09:15:54;;;;;;;6.50;1.50;;;;;;;29.42;41.76;98870.16;109567;1253;58808;-69
2023/09/19 09:18:40;;;;;;;5.60;1.40;;;;;;;28.11;43.67;98873.12;109567;1253;58868;-67
2023/09/19 09:21:28;;;;;;;6.50;1.60;;;;;;;27.12;45.75;98877.45;109475;1256;72303;-69
2023/09/19 09:24:29;;;;;;;7.00;1.90;;;;;;;27.18;46.06;98873.85;109387;1253;68697;-70
2023/09/19 09:27:15;;;;;;;6.90;1.70;;;;;;;28.46;44.42;98866.89;109496;1253;72992;-67
2023/09/19 09:30:03;;;;;;;7.10;1.70;;;;;;;29.92;41.13;98874.36;109520;1253;57725;-69
2023/09/19 09:33:08;;;;;;;7.20;1.70;;;;;;;29.89;40.41;98872.77;109363;1254;61348;-67
2023/09/19 09:36:00;;;;;;;6.50;2.00;;;;;;;30.01;39.84;98882.03;109445;1253;73148;-68
2023/09/19 09:38:55;;;;;;;6.90;1.60;;;;;;;29.23;40.71;98882.20;109446;1253;68736;-67
2023/09/19 09:41:43;;;;;;;5.70;1.70;;;;;;;28.42;42.77;98887.49;109409;1253;72536;-67
2023/09/19 09:44:31;;;;;;;5.70;1.70;;;;;;;28.37;43.47;98888.30;109393;1252;57788;-67
2023/09/19 09:47:49;;;;;;;6.30;1.70;;;;;;;28.10;44.09;98886.38;109339;1253;60372;-66
2023/09/19 09:50:51;;;;;;;6.70;1.70;;;;;;;27.71;44.84;98886.06;109391;1252;73677;-66
2023/09/19 09:53:37;;;;;;;6.00;1.60;;;;;;;28.05;44.51;98884.95;109294;1253;68929;-69
2023/09/19 09:56:24;;;;;;;5.60;1.50;;;;;;;28.25;43.98;98891.39;109446;1253;72525;-67
2023/09/19 09:59:17;;;;;;;7.00;1.80;;;;;;;27.42;44.93;98891.74;109312;1253;57745;-69
2023/09/19 10:02:04;;;;;;;6.50;1.80;;;;;;;26.65;46.43;98901.55;109497;1253;58823;-72
2023/09/19 10:04:59;;;;;;;6.20;1.80;;;;;;;25.89;48.69;98909.11;109288;1253;73859;-69
2023/09/19 10:08:08;;;;;;;7.00;1.90;;;;;;;24.89;50.65;98906.62;109307;1253;68028;-70
2023/09/19 10:11:05;;;;;;;6.50;1.80;;;;;;;24.01;53.09;98915.45;109495;1253;72613;-70
2023/09/19 10:13:53;;;;;;;6.10;1.90;;;;;;;23.73;53.61;98923.38;109288;1253;57790;-68
2023/09/19 10:16:47;;;;;;;7.80;1.80;;;;;;;24.44;53.38;98917.73;109323;1253;59314;-72
2023/09/19 10:19:57;;;;;;;7.70;1.60;;;;;;;26.45;46.52;98912.47;109390;1253;72699;-68
2023/09/19 10:22:44;;;;;;;6.90;1.70;;;;;;;28.51;42.44;98905.52;109526;1253;68599;-66
2023/09/19 10:25:31;;;;;;;8.50;1.90;;;;;;;30.40;37.76;98911.70;109241;1253;72495;-66
2023/09/19 10:28:22;;;;;;;5.40;1.30;;;;;;;31.42;35.67;98917.54;109415;1254;58840;-69
2023/09/19 10:31:14;;;;;;;8.10;1.30;;;;;;;31.53;34.74;98910.61;109548;1254;61630;-66
2023/09/19 10:34:03;;;;;;;6.30;1.40;;;;;;;31.55;34.26;98909.39;109362;1254;72946;-67
2023/09/19 10:36:52;;;;;;;9.20;3.30;;;;;;;32.15;33.64;98907.97;109600;1254;68818;-67
2023/09/19 10:39:40;;;;;;;5.80;1.40;;;;;;;31.27;34.44;98919.92;109549;1256;72655;-67
2023/09/19 10:42:29;;;;;;;5.50;1.50;;;;;;;29.83;36.53;98925.05;109464;1252;58797;-67
2023/09/19 10:45:20;;;;;;;6.80;1.40;;;;;;;29.78;37.26;98917.62;109410;1254;61093;-67
2023/09/19 10:48:07;;;;;;;7.20;1.80;;;;;;;30.28;36.97;98919.47;109512;1253;74127;-70
2023/09/19 10:51:09;;;;;;;5.60;1.60;;;;;;;31.04;35.59;98922.64;109619;1252;69041;-67
2023/09/19 10:54:13;;;;;;;6.60;1.40;;;;;;;31.72;33.46;98921.32;109636;1252;71369;-67
2023/09/19 10:57:00;;;;;;;7.00;1.50;;;;;;;30.50;34.60;98933.52;109288;1252;57798;-67
2023/09/19 11:00:24;;;;;;;7.60;1.60;;;;;;;29.45;36.36;98939.80;109572;1254;60302;-67
2023/09/19 11:03:23;;;;;;;6.90;1.60;;;;;;;28.63;37.70;98942.79;109450;1254;73098;-65
2023/09/19 11:06:19;;;;;;;6.60;1.80;;;;;;;28.09;38.58;98943.13;109449;1252;67705;-68
2023/09/19 11:09:15;;;;;;;8.90;1.70;;;;;;;27.75;39.19;98944.09;109247;1252;72550;-68
2023/09/19 11:12:02;;;;;;;6.30;1.60;;;;;;;27.56;39.54;98946.11;109549;1254;57294;-66
2023/09/19 11:14:48;;;;;;;6.20;1.50;;;;;;;27.88;39.05;98943.60;109573;1253;60804;-65
2023/09/19 11:17:50;;;;;;;6.00;1.60;;;;;;;28.32;38.69;98942.10;109567;1253;73732;-66
2023/09/19 11:20:41;;;;;;;6.20;1.80;;;;;;;28.49;38.14;98934.49;109345;1254;68818;-66
2023/09/19 11:23:27;;;;;;;5.90;1.70;;;;;;;27.97;39.05;98935.86;109145;1254;73607;-65
2023/09/19 11:26:43;;;;;;;6.20;1.70;;;;;;;27.57;40.21;98931.84;109461;1254;57469;-67
2023/09/19 11:29:31;;;;;;;6.00;1.50;;;;;;;27.10;40.92;98944.44;109239;1254;58871;-66
2023/09/19 11:32:56;;;;;;;8.10;1.80;;;;;;;26.56;42.49;98948.58;109265;1255;73642;-66
2023/09/19 11:36:15;;;;;;;6.70;1.80;;;;;;;25.82;44.43;98947.62;109363;1254;69161;-67
2023/09/19 11:39:07;;;;;;;8.10;2.90;;;;;;;25.21;46.09;98946.77;109201;1256;73399;-67
2023/09/19 11:41:56;;;;;;;7.10;2.30;;;;;;;24.88;47.08;98954.50;109522;1254;57322;-66
2023/09/19 11:44:44;;;;;;;5.80;1.60;;;;;;;24.75;47.74;98966.31;109144;1258;60998;-66
2023/09/19 11:47:32;;;;;;;7.60;1.90;;;;;;;24.68;47.98;98966.41;109371;1256;73098;-65
2023/09/19 11:50:20;;;;;;;7.20;1.80;;;;;;;24.59;47.55;98964.04;109514;1254;67979;-67
2023/09/19 11:53:10;;;;;;;6.00;1.80;;;;;;;24.37;47.57;98972.50;109269;1254;73808;-66
2023/09/19 11:55:58;;;;;;;7.40;1.90;;;;;;;24.27;47.86;98977.10;109459;1257;57480;-64
2023/09/19 11:58:45;;;;;;;7.20;1.90;;;;;;;24.08;47.80;98978.29;109488;1254;59838;-66
2023/09/19 12:01:34;;;;;;;6.20;1.70;;;;;;;23.94;48.11;98988.27;109477;1254;74119;-64
2023/09/19 12:04:33;;;;;;;7.70;1.70;;;;;;;23.65;47.07;98989.13;109469;1254;66838;-68
2023/09/19 12:07:19;;;;;;;7.70;1.70;;;;;;;23.42;47.74;98987.94;109272;1254;72620;-64
2023/09/19 12:10:10;;;;;;;6.70;1.70;;;;;;;23.12;48.55;98996.66;109269;1253;57806;-67
2023/09/19 12:12:59;;;;;;;6.30;1.60;;;;;;;22.86;49.14;98997.30;109460;1253;60357;-64
2023/09/19 12:15:47;;;;;;;7.40;2.20;;;;;;;22.72;49.58;98999.95;109441;1254;70732;-65
2023/09/19 12:18:35;;;;;;;7.70;2.10;;;;;;;22.59;48.96;98997.47;109322;1253;67979;-64
2023/09/19 12:21:27;;;;;;;7.70;2.00;;;;;;;22.59;48.84;98996.92;109371;1253;72478;-64
2023/09/19 12:24:18;;;;;;;7.40;1.80;;;;;;;22.49;48.47;98999.27;109343;1253;57951;-64
2023/09/19 12:27:06;;;;;;;6.00;1.50;;;;;;;22.58;48.26;98999.23;109481;1254;60098;-68
2023/09/19 12:29:59;;;;;;;7.20;1.50;;;;;;;22.75;47.91;99001.05;109513;1253;72920;-66
2023/09/19 12:32:52;;;;;;;7.10;1.60;;;;;;;22.93;47.45;99005.66;109310;1254;67819;-64
2023/09/19 12:35:39;;;;;;;8.20;1.60;;;;;;;22.98;47.15;99004.48;109294;1253;72542;-64
2023/09/19 12:38:33;;;;;;;6.80;1.60;;;;;;;23.15;46.88;99010.48;109461;1253;59276;-66
2023/09/19 12:41:22;;;;;;;6.10;1.50;;;;;;;23.40;46.61;99009.19;109358;1253;61375;-64
2023/09/19 12:44:12;;;;;;;5.60;1.40;;;;;;;23.56;46.45;99008.55;109285;1253;73073;-64
2023/09/19 12:47:01;;;;;;;5.70;1.60;;;;;;;23.46;46.24;99009.95;109351;1253;69308;-65
2023/09/19 12:50:17;;;;;;;6.60;1.60;;;;;;;23.29;46.29;99020.02;109527;1253;72274;-64
2023/09/19 12:53:04;;;;;;;5.50;1.20;;;;;;;23.27;46.13;99025.97;109292;1253;57954;-64
2023/09/19 12:55:59;;;;;;;5.70;1.50;;;;;;;23.21;45.91;99027.16;109526;1253;59515;-64
2023/09/19 12:58:58;;;;;;;5.70;1.50;;;;;;;23.26;46.41;99024.05;109512;1254;72942;-63
2023/09/19 13:01:46;;;;;;;6.30;1.50;;;;;;;23.08;46.38;99026.21;109384;1253;68726;-65
2023/09/19 13:04:34;;;;;;;8.50;2.60;;;;;;;22.98;47.01;99025.10;109473;1253;74090;-64
2023/09/19 13:07:46;;;;;;;6.20;1.70;;;;;;;22.96;47.10;99029.72;109289;1257;58540;-66